Time;durP1;ratioP1;P1;durP2;ratioP2;P2;SDS_P1;SDS_P2;PMS_P1;PMS_P2;Temp;Humidity;BMP_temperature;BMP_pressure;BME280_temperature;BME280_humidity;BME280_pressure;Samples;Min_cycle;Max_cycle;Signal;HPM_P1;HPM_P2
2023/07/30 00:00:40;;;;;;;;;;;25.50;46.60;;;;;;5042962;28;87464;-58
2023/07/30 00:03:06;;;;;;;;;;;25.40;46.50;;;;;;5040020;28;87290;-56
2023/07/30 00:05:31;;;;;;;;;;;25.50;46.60;;;;;;5043271;28;87480;-57
2023/07/30 00:07:57;;;;;;;;;;;25.50;46.60;;;;;;5043314;27;88199;-57
2023/07/30 00:10:23;;;;;;;;;;;25.40;46.60;;;;;;5043253;28;87108;-57
2023/07/30 00:12:48;;;;;;;;;;;25.40;46.60;;;;;;5043379;27;87230;-58
2023/07/30 00:15:14;;;;;;;;;;;25.40;46.70;;;;;;5043350;28;87666;-56
2023/07/30 00:17:39;;;;;;;;;;;25.40;46.70;;;;;;5043618;28;87160;-57
2023/07/30 00:20:06;;;;;;;;;;;25.40;46.60;;;;;;5040882;28;89753;-56
2023/07/30 00:22:31;;;;;;;;;;;25.40;46.70;;;;;;5043093;27;88069;-57
2023/07/30 00:24:57;;;;;;;;;;;25.40;46.70;;;;;;5042793;28;89446;-55
2023/07/30 00:27:22;;;;;;;;;;;25.30;46.70;;;;;;5042744;28;88186;-57
2023/07/30 00:29:48;;;;;;;;;;;25.40;46.70;;;;;;5042863;28;87213;-57
2023/07/30 00:32:15;;;;;;;;;;;25.30;46.70;;;;;;5039676;28;87866;-57
2023/07/30 00:34:41;;;;;;;;;;;25.30;46.70;;;;;;5042099;28;89547;-57
2023/07/30 00:37:06;;;;;;;;;;;25.30;46.70;;;;;;5042859;28;87025;-56
2023/07/30 00:39:32;;;;;;;;;;;25.30;46.80;;;;;;5046178;27;87520;-57
2023/07/30 00:41:57;;;;;;;;;;;25.30;46.70;;;;;;5042798;28;87069;-57
2023/07/30 00:44:23;;;;;;;;;;;25.30;46.70;;;;;;5042629;28;87389;-55
2023/07/30 00:46:49;;;;;;;;;;;25.30;46.70;;;;;;5039377;28;88908;-58
2023/07/30 00:49:14;;;;;;;;;;;25.20;46.70;;;;;;5041122;28;87300;-56
2023/07/30 00:51:40;;;;;;;;;;;25.20;46.70;;;;;;5042587;28;87607;-55
2023/07/30 00:54:06;;;;;;;;;;;25.20;46.80;;;;;;5042584;27;88133;-55
2023/07/30 00:56:31;;;;;;;;;;;25.20;46.80;;;;;;5042716;28;87561;-55
2023/07/30 00:58:57;;;;;;;;;;;25.20;46.80;;;;;;5042690;28;87348;-58
2023/07/30 01:01:23;;;;;;;;;;;25.20;46.80;;;;;;5044650;28;88107;-57
2023/07/30 01:03:49;;;;;;;;;;;25.20;46.80;;;;;;5040826;28;87407;-57
2023/07/30 01:06:15;;;;;;;;;;;25.20;46.80;;;;;;5041642;28;89400;-57
2023/07/30 01:08:41;;;;;;;;;;;25.10;46.70;;;;;;5042780;27;87110;-58
2023/07/30 01:11:07;;;;;;;;;;;25.10;46.70;;;;;;5041482;28;88898;-58
2023/07/30 01:13:35;;;;;;;;;;;25.10;46.70;;;;;;5042027;27;88258;-55
2023/07/30 01:16:00;;;;;;;;;;;25.10;46.70;;;;;;5041975;28;87088;-57
2023/07/30 01:18:26;;;;;;;;;;;25.10;46.70;;;;;;5038946;28;88881;-58
2023/07/30 01:20:57;;;;;;;;;;;25.10;46.70;;;;;;5041695;28;88133;-55
2023/07/30 01:23:22;;;;;;;;;;;25.00;46.60;;;;;;5043374;27;87097;-56
2023/07/30 01:25:49;;;;;;;;;;;25.00;46.70;;;;;;5041845;28;88260;-57
2023/07/30 01:28:17;;;;;;;;;;;25.00;46.60;;;;;;5042289;28;86320;-57
2023/07/30 01:30:44;;;;;;;;;;;25.00;46.70;;;;;;5040775;27;89706;-57
2023/07/30 01:33:11;;;;;;;;;;;25.00;46.80;;;;;;5040238;28;88230;-57
2023/07/30 01:35:37;;;;;;;;;;;25.00;46.80;;;;;;5041288;28;87979;-57
2023/07/30 01:38:05;;;;;;;;;;;25.00;46.80;;;;;;5042547;27;88448;-58
2023/07/30 01:40:31;;;;;;;;;;;24.90;46.70;;;;;;5035710;28;89826;-59
2023/07/30 01:42:57;;;;;;;;;;;25.00;46.80;;;;;;5041911;27;87732;-58
2023/07/30 01:45:22;;;;;;;;;;;24.90;46.80;;;;;;5044308;28;87954;-55
2023/07/30 01:47:48;;;;;;;;;;;24.90;46.80;;;;;;5038929;27;87422;-53
2023/07/30 01:50:13;;;;;;;;;;;24.90;46.80;;;;;;5037775;28;87616;-58
2023/07/30 01:52:38;;;;;;;;;;;24.90;46.80;;;;;;5042037;28;87474;-55
2023/07/30 01:55:04;;;;;;;;;;;24.90;46.90;;;;;;5042110;27;87232;-58
2023/07/30 01:57:30;;;;;;;;;;;24.90;46.80;;;;;;5041991;28;87020;-55
2023/07/30 01:59:55;;;;;;;;;;;24.80;46.80;;;;;;5039162;28;92618;-57
2023/07/30 02:02:21;;;;;;;;;;;24.80;46.80;;;;;;5041736;27;87014;-58
2023/07/30 02:04:46;;;;;;;;;;;24.80;46.90;;;;;;5039377;28;87553;-57
2023/07/30 02:07:12;;;;;;;;;;;24.80;46.90;;;;;;5044320;28;88211;-57
2023/07/30 02:09:37;;;;;;;;;;;24.80;46.90;;;;;;5041858;27;87518;-57
2023/07/30 02:12:03;;;;;;;;;;;24.80;46.90;;;;;;5041305;28;87201;-57
2023/07/30 02:14:28;;;;;;;;;;;24.80;46.90;;;;;;5042855;27;87286;-58
2023/07/30 02:16:54;;;;;;;;;;;24.70;47.00;;;;;;5045588;28;87667;-57
2023/07/30 02:19:19;;;;;;;;;;;24.70;47.00;;;;;;5042227;28;88672;-57
2023/07/30 02:21:45;;;;;;;;;;;24.70;47.00;;;;;;5044916;28;87067;-57
2023/07/30 02:24:11;;;;;;;;;;;24.70;47.00;;;;;;5044863;27;88122;-55
2023/07/30 02:26:39;;;;;;;;;;;24.70;47.00;;;;;;5047486;27;87601;-56
2023/07/30 02:29:05;;;;;;;;;;;24.60;47.00;;;;;;5044571;28;88079;-58
2023/07/30 02:31:31;;;;;;;;;;;24.60;47.00;;;;;;5044531;28;87990;-58
2023/07/30 02:33:56;;;;;;;;;;;24.60;47.00;;;;;;5042692;27;87210;-58
2023/07/30 02:36:22;;;;;;;;;;;24.60;47.10;;;;;;5044862;28;87106;-56
2023/07/30 02:38:47;;;;;;;;;;;24.60;47.00;;;;;;5042415;27;87870;-58
2023/07/30 02:41:13;;;;;;;;;;;24.60;47.00;;;;;;5041256;28;86488;-58
2023/07/30 02:43:39;;;;;;;;;;;24.60;47.10;;;;;;5044696;28;86954;-57
2023/07/30 02:46:04;;;;;;;;;;;24.60;47.10;;;;;;5044119;28;88170;-56
2023/07/30 02:48:30;;;;;;;;;;;24.50;47.10;;;;;;5045507;28;88044;-54
2023/07/30 02:50:55;;;;;;;;;;;24.50;47.10;;;;;;5044209;28;87982;-57
2023/07/30 02:53:21;;;;;;;;;;;24.50;47.10;;;;;;5044405;28;87098;-56
2023/07/30 02:55:46;;;;;;;;;;;24.50;47.20;;;;;;5044798;27;87898;-58
2023/07/30 02:58:11;;;;;;;;;;;24.50;47.20;;;;;;5044003;28;87897;-56
2023/07/30 03:00:37;;;;;;;;;;;24.50;47.10;;;;;;5044227;28;87216;-57
2023/07/30 03:03:03;;;;;;;;;;;24.50;47.20;;;;;;5044410;28;87468;-57
2023/07/30 03:05:28;;;;;;;;;;;24.40;47.10;;;;;;5041259;28;89023;-56
2023/07/30 03:07:54;;;;;;;;;;;24.40;47.20;;;;;;5044345;28;87218;-58
2023/07/30 03:10:20;;;;;;;;;;;24.40;47.20;;;;;;5047059;27;87431;-56
2023/07/30 03:12:45;;;;;;;;;;;24.40;47.20;;;;;;5041685;27;88366;-57
2023/07/30 03:15:11;;;;;;;;;;;24.40;47.20;;;;;;5042027;28;87812;-55
2023/07/30 03:17:36;;;;;;;;;;;24.30;47.20;;;;;;5037170;28;88084;-57
2023/07/30 03:20:04;;;;;;;;;;;24.30;47.20;;;;;;5041919;28;87102;-57
2023/07/30 03:22:29;;;;;;;;;;;24.30;47.20;;;;;;5043064;27;88991;-57
2023/07/30 03:24:55;;;;;;;;;;;24.30;47.20;;;;;;5040654;27;87468;-57
2023/07/30 03:27:20;;;;;;;;;;;24.30;47.30;;;;;;5039381;28;87174;-57
2023/07/30 03:29:46;;;;;;;;;;;24.30;47.30;;;;;;5044789;28;87690;-57
2023/07/30 03:32:11;;;;;;;;;;;24.30;47.30;;;;;;5046537;27;88323;-57
2023/07/30 03:34:36;;;;;;;;;;;24.20;47.30;;;;;;5039652;28;87475;-58
2023/07/30 03:37:02;;;;;;;;;;;24.20;47.30;;;;;;5039191;28;89022;-57
2023/07/30 03:39:27;;;;;;;;;;;24.20;47.30;;;;;;5043873;27;87356;-57
2023/07/30 03:41:53;;;;;;;;;;;24.20;47.30;;;;;;5043546;27;87649;-58
2023/07/30 03:44:19;;;;;;;;;;;24.20;47.30;;;;;;5040779;28;88202;-57
2023/07/30 03:46:44;;;;;;;;;;;24.20;47.40;;;;;;5039913;28;87332;-56
2023/07/30 03:49:10;;;;;;;;;;;24.20;47.40;;;;;;5042066;28;87378;-58
2023/07/30 03:51:35;;;;;;;;;;;24.20;47.40;;;;;;5041804;27;88134;-57
2023/07/30 03:54:01;;;;;;;;;;;24.20;47.40;;;;;;5044133;27;86835;-57
2023/07/30 03:56:27;;;;;;;;;;;24.10;47.40;;;;;;5038081;28;88296;-58
2023/07/30 03:58:52;;;;;;;;;;;24.10;47.40;;;;;;5043407;28;87083;-56
2023/07/30 04:01:18;;;;;;;;;;;24.10;47.40;;;;;;5040094;27;88812;-56
2023/07/30 04:03:43;;;;;;;;;;;24.10;47.40;;;;;;5038697;28;88863;-57
2023/07/30 04:06:08;;;;;;;;;;;24.00;47.50;;;;;;5042599;28;87191;-57
2023/07/30 04:08:34;;;;;;;;;;;24.00;47.50;;;;;;5043045;27;87074;-57
2023/07/30 04:10:59;;;;;;;;;;;24.00;47.50;;;;;;5039587;27;87892;-57
2023/07/30 04:13:25;;;;;;;;;;;24.00;47.40;;;;;;5038199;28;87100;-58
2023/07/30 04:15:50;;;;;;;;;;;24.00;47.50;;;;;;5045836;28;87021;-55
2023/07/30 04:18:16;;;;;;;;;;;24.00;47.50;;;;;;5045089;27;86429;-56
2023/07/30 04:20:41;;;;;;;;;;;24.00;47.50;;;;;;5039142;28;87886;-58
2023/07/30 04:23:07;;;;;;;;;;;23.90;47.50;;;;;;5037108;28;88004;-56
2023/07/30 04:25:32;;;;;;;;;;;24.00;47.50;;;;;;5041418;27;88045;-57
2023/07/30 04:27:58;;;;;;;;;;;24.00;47.60;;;;;;5043913;27;88420;-57
2023/07/30 04:30:24;;;;;;;;;;;23.90;47.50;;;;;;5039448;28;89277;-57
2023/07/30 04:32:49;;;;;;;;;;;23.90;47.50;;;;;;5036429;28;88819;-56
2023/07/30 04:35:15;;;;;;;;;;;23.90;47.50;;;;;;5044842;28;87953;-58
2023/07/30 04:37:40;;;;;;;;;;;23.90;47.60;;;;;;5042484;27;87246;-58
2023/07/30 04:40:06;;;;;;;;;;;23.90;47.70;;;;;;5040186;27;87249;-56
2023/07/30 04:42:32;;;;;;;;;;;23.90;47.70;;;;;;5036726;28;87779;-58
2023/07/30 04:44:57;;;;;;;;;;;23.90;47.70;;;;;;5042642;28;87188;-57
2023/07/30 04:47:23;;;;;;;;;;;23.80;47.70;;;;;;5042879;27;87253;-56
2023/07/30 04:49:48;;;;;;;;;;;23.90;47.70;;;;;;5038219;28;89847;-56
2023/07/30 04:52:14;;;;;;;;;;;23.90;47.70;;;;;;5038644;28;87152;-56
2023/07/30 04:54:39;;;;;;;;;;;23.80;47.70;;;;;;5042690;27;87100;-56
2023/07/30 04:57:05;;;;;;;;;;;23.80;47.70;;;;;;5044971;27;88304;-57
2023/07/30 04:59:31;;;;;;;;;;;23.80;47.70;;;;;;5037138;28;87112;-58
2023/07/30 05:01:56;;;;;;;;;;;23.80;47.80;;;;;;5036541;28;89519;-56
2023/07/30 05:04:22;;;;;;;;;;;23.80;47.80;;;;;;5041844;28;87180;-57
2023/07/30 05:06:47;;;;;;;;;;;23.80;47.80;;;;;;5041206;27;87616;-58
2023/07/30 05:09:13;;;;;;;;;;;23.80;47.80;;;;;;5038780;28;88260;-55
2023/07/30 05:11:38;;;;;;;;;;;23.80;47.90;;;;;;5041570;27;87232;-56
2023/07/30 05:14:04;;;;;;;;;;;23.70;47.80;;;;;;5043198;27;88111;-58
2023/07/30 05:16:29;;;;;;;;;;;23.80;47.80;;;;;;5038914;28;88331;-55
2023/07/30 05:18:55;;;;;;;;;;;23.70;47.80;;;;;;5039267;28;87465;-57
2023/07/30 05:21:20;;;;;;;;;;;23.70;47.90;;;;;;5040169;28;88401;-55
2023/07/30 05:23:46;;;;;;;;;;;23.70;47.90;;;;;;5043564;27;87866;-55
2023/07/30 05:26:11;;;;;;;;;;;23.70;47.80;;;;;;5037353;28;87257;-57
2023/07/30 05:28:37;;;;;;;;;;;23.80;47.90;;;;;;5035819;28;89071;-55
2023/07/30 05:31:02;;;;;;;;;;;23.80;48.00;;;;;;5038311;28;86283;-56
2023/07/30 05:33:28;;;;;;;;;;;23.70;47.90;;;;;;5042412;27;87015;-53
2023/07/30 05:35:53;;;;;;;;;;;23.70;48.00;;;;;;5037606;28;87750;-57
2023/07/30 05:38:19;;;;;;;;;;;23.70;48.00;;;;;;5037343;28;88048;-56
2023/07/30 05:40:44;;;;;;;;;;;23.70;48.10;;;;;;5044770;27;88427;-57
2023/07/30 05:43:10;;;;;;;;;;;23.70;48.10;;;;;;5041455;27;87313;-56
2023/07/30 05:45:35;;;;;;;;;;;23.70;48.10;;;;;;5038959;28;88932;-57
2023/07/30 05:48:01;;;;;;;;;;;23.70;48.20;;;;;;5037607;27;87791;-57
2023/07/30 05:50:26;;;;;;;;;;;23.70;48.20;;;;;;5044857;28;87158;-56
2023/07/30 05:52:51;;;;;;;;;;;23.70;48.20;;;;;;5044343;27;87413;-58
2023/07/30 05:55:17;;;;;;;;;;;23.80;48.20;;;;;;5042928;27;87646;-58
2023/07/30 05:57:43;;;;;;;;;;;23.70;48.10;;;;;;5041309;28;87198;-58
2023/07/30 06:00:09;;;;;;;;;;;23.70;48.20;;;;;;5045241;27;87384;-54
2023/07/30 06:02:34;;;;;;;;;;;23.70;48.20;;;;;;5044604;28;88576;-56
2023/07/30 06:05:00;;;;;;;;;;;23.70;48.30;;;;;;5039527;28;88752;-57
2023/07/30 06:07:25;;;;;;;;;;;23.70;48.30;;;;;;5045026;28;88157;-57
2023/07/30 06:09:50;;;;;;;;;;;23.70;48.30;;;;;;5043757;27;87124;-55
2023/07/30 06:12:16;;;;;;;;;;;23.70;48.20;;;;;;5042437;27;87433;-54
2023/07/30 06:14:41;;;;;;;;;;;23.70;48.30;;;;;;5039647;28;87606;-57
2023/07/30 06:17:07;;;;;;;;;;;23.70;48.30;;;;;;5045170;28;87203;-56
2023/07/30 06:19:32;;;;;;;;;;;23.70;48.30;;;;;;5045740;27;87700;-55
2023/07/30 06:21:58;;;;;;;;;;;23.70;48.40;;;;;;5040844;28;88158;-55
2023/07/30 06:24:23;;;;;;;;;;;23.70;48.40;;;;;;5041029;28;87531;-56
2023/07/30 06:26:49;;;;;;;;;;;23.70;48.40;;;;;;5044267;27;89204;-56
2023/07/30 06:29:14;;;;;;;;;;;23.80;48.40;;;;;;5043132;28;87189;-55
2023/07/30 06:31:40;;;;;;;;;;;23.80;48.40;;;;;;5041368;28;87780;-57
2023/07/30 06:34:06;;;;;;;;;;;23.70;48.50;;;;;;5041353;28;90972;-58
2023/07/30 06:36:31;;;;;;;;;;;23.70;48.50;;;;;;5043850;28;87215;-56
2023/07/30 06:38:57;;;;;;;;;;;23.70;48.50;;;;;;5045281;27;87289;-56
2023/07/30 06:41:22;;;;;;;;;;;23.80;48.70;;;;;;5041486;27;89371;-56
2023/07/30 06:43:48;;;;;;;;;;;23.80;48.60;;;;;;5042505;28;87482;-56
2023/07/30 06:46:13;;;;;;;;;;;23.80;48.60;;;;;;5042633;28;90648;-55
2023/07/30 06:48:39;;;;;;;;;;;23.80;48.60;;;;;;5044241;27;87504;-57
2023/07/30 06:51:09;;;;;;;;;;;23.80;48.60;;;;;;5039336;28;88207;-58
2023/07/30 06:53:35;;;;;;;;;;;23.80;48.70;;;;;;5038948;28;89221;-58
2023/07/30 06:56:00;;;;;;;;;;;23.80;48.70;;;;;;5044518;27;87122;-55
2023/07/30 06:58:26;;;;;;;;;;;23.80;48.70;;;;;;5041168;27;87998;-58
2023/07/30 07:00:51;;;;;;;;;;;23.80;48.70;;;;;;5038947;27;88182;-56
2023/07/30 07:03:17;;;;;;;;;;;23.70;48.60;;;;;;5044506;28;87021;-57
2023/07/30 07:05:42;;;;;;;;;;;23.80;48.70;;;;;;5046765;27;87415;-57
2023/07/30 07:08:08;;;;;;;;;;;23.80;48.80;;;;;;5041885;28;86444;-55
2023/07/30 07:10:33;;;;;;;;;;;23.80;48.70;;;;;;5039617;27;87392;-58
2023/07/30 07:12:59;;;;;;;;;;;23.80;48.70;;;;;;5043752;28;88014;-56
2023/07/30 07:15:24;;;;;;;;;;;23.80;48.70;;;;;;5044945;27;88758;-57
2023/07/30 07:17:50;;;;;;;;;;;23.80;48.70;;;;;;5041706;28;88363;-56
2023/07/30 07:20:15;;;;;;;;;;;23.80;49.30;;;;;;5038636;28;88027;-57
2023/07/30 07:22:41;;;;;;;;;;;23.80;48.80;;;;;;5043635;28;87142;-57
2023/07/30 07:25:06;;;;;;;;;;;23.80;48.80;;;;;;5045234;27;87174;-57
2023/07/30 07:27:32;;;;;;;;;;;23.80;49.30;;;;;;5043614;27;87709;-56
2023/07/30 07:29:59;;;;;;;;;;;23.80;48.80;;;;;;5038577;28;88481;-56
2023/07/30 07:32:24;;;;;;;;;;;23.80;48.80;;;;;;5043898;28;89038;-57
2023/07/30 07:34:50;;;;;;;;;;;23.80;48.70;;;;;;5044719;27;87215;-56
2023/07/30 07:37:16;;;;;;;;;;;23.80;48.70;;;;;;5040590;28;87818;-57
2023/07/30 07:39:42;;;;;;;;;;;23.80;48.60;;;;;;5037038;28;90141;-57
2023/07/30 07:42:07;;;;;;;;;;;23.80;48.80;;;;;;5043853;27;87737;-56
2023/07/30 07:44:33;;;;;;;;;;;23.90;48.90;;;;;;5042772;27;88303;-58
2023/07/30 07:46:58;;;;;;;;;;;23.80;48.80;;;;;;5041164;28;87173;-56
2023/07/30 07:49:24;;;;;;;;;;;23.80;48.80;;;;;;5040567;28;87129;-56
2023/07/30 07:51:49;;;;;;;;;;;23.80;48.80;;;;;;5041398;27;88054;-57
2023/07/30 07:54:15;;;;;;;;;;;23.90;48.90;;;;;;5043481;27;87120;-58
2023/07/30 07:56:40;;;;;;;;;;;23.90;48.90;;;;;;5041240;27;87584;-56
2023/07/30 07:59:06;;;;;;;;;;;23.80;48.90;;;;;;5040892;28;88196;-57
2023/07/30 08:01:31;;;;;;;;;;;23.90;48.80;;;;;;5043596;28;87010;-57
2023/07/30 08:03:57;;;;;;;;;;;23.80;48.80;;;;;;5042556;27;88754;-57
2023/07/30 08:06:22;;;;;;;;;;;23.90;48.80;;;;;;5038505;28;88076;-55
2023/07/30 08:08:48;;;;;;;;;;;23.90;49.00;;;;;;5040262;28;87664;-54
2023/07/30 08:11:13;;;;;;;;;;;23.90;48.90;;;;;;5045266;27;87051;-56
2023/07/30 08:13:39;;;;;;;;;;;23.90;48.80;;;;;;5042513;27;87231;-56
2023/07/30 08:16:04;;;;;;;;;;;23.90;48.90;;;;;;5040357;28;87181;-56
2023/07/30 08:18:30;;;;;;;;;;;23.90;48.90;;;;;;5037364;28;88183;-56
2023/07/30 08:20:55;;;;;;;;;;;23.90;48.90;;;;;;5041761;28;86482;-56
2023/07/30 08:23:21;;;;;;;;;;;23.90;48.70;;;;;;5036565;28;87262;-56
2023/07/30 08:25:47;;;;;;;;;;;23.90;48.80;;;;;;5040715;27;88109;-57
2023/07/30 08:28:12;;;;;;;;;;;23.90;48.70;;;;;;5038339;27;88192;-56
2023/07/30 08:30:38;;;;;;;;;;;23.90;48.70;;;;;;5045185;28;88890;-55
2023/07/30 08:33:03;;;;;;;;;;;23.90;48.70;;;;;;5042668;27;88672;-56
2023/07/30 08:35:29;;;;;;;;;;;23.90;48.70;;;;;;5040900;28;87613;-55
2023/07/30 08:37:54;;;;;;;;;;;23.90;48.70;;;;;;5035311;28;89289;-53
2023/07/30 08:40:23;;;;;;;;;;;23.90;48.60;;;;;;5043172;28;87546;-54
2023/07/30 08:42:52;;;;;;;;;;;23.90;48.70;;;;;;5043073;27;87098;-57
2023/07/30 08:45:18;;;;;;;;;;;23.90;48.70;;;;;;5040106;28;88896;-56
2023/07/30 08:47:44;;;;;;;;;;;24.00;48.50;;;;;;5039131;28;87117;-54
2023/07/30 08:50:09;;;;;;;;;;;24.00;48.70;;;;;;5042724;27;87795;-56
2023/07/30 08:52:35;;;;;;;;;;;24.00;48.70;;;;;;5042288;27;89300;-57
2023/07/30 08:55:02;;;;;;;;;;;24.00;48.50;;;;;;5035569;28;87995;-57
2023/07/30 08:57:29;;;;;;;;;;;24.00;48.60;;;;;;5042582;27;88749;-57
2023/07/30 08:59:58;;;;;;;;;;;24.00;48.50;;;;;;5043801;27;87310;-58
2023/07/30 09:02:29;;;;;;;;;;;24.00;48.70;;;;;;5039971;28;87177;-57
2023/07/30 09:04:56;;;;;;;;;;;24.00;48.60;;;;;;5036329;28;89294;-56
2023/07/30 09:07:24;;;;;;;;;;;24.00;48.60;;;;;;5040594;28;87158;-58
2023/07/30 09:09:49;;;;;;;;;;;24.00;48.50;;;;;;5041739;27;87295;-57
2023/07/30 09:12:15;;;;;;;;;;;24.00;48.50;;;;;;5038335;27;88437;-57
2023/07/30 09:14:44;;;;;;;;;;;24.00;48.60;;;;;;5035064;28;88951;-56
2023/07/30 09:17:10;;;;;;;;;;;24.10;48.50;;;;;;5041174;28;88994;-56
2023/07/30 09:19:36;;;;;;;;;;;24.10;48.50;;;;;;5041393;27;87405;-57
2023/07/30 09:22:06;;;;;;;;;;;24.10;48.60;;;;;;5038059;28;87646;-56
2023/07/30 09:24:31;;;;;;;;;;;24.10;48.50;;;;;;5038085;28;90040;-57
2023/07/30 09:27:01;;;;;;;;;;;24.10;48.60;;;;;;5038658;27;87045;-56
2023/07/30 09:29:26;;;;;;;;;;;24.20;48.60;;;;;;5040979;27;89294;-58
2023/07/30 09:31:56;;;;;;;;;;;24.20;48.60;;;;;;5038304;28;88223;-56
2023/07/30 09:34:22;;;;;;;;;;;24.20;48.50;;;;;;5038062;28;86444;-57
2023/07/30 09:36:50;;;;;;;;;;;24.20;48.60;;;;;;5042647;27;87132;-58
2023/07/30 09:39:20;;;;;;;;;;;24.20;48.50;;;;;;5039479;28;87145;-55
2023/07/30 09:41:45;;;;;;;;;;;24.20;48.70;;;;;;5037883;27;89797;-55
2023/07/30 09:44:11;;;;;;;;;;;24.20;48.50;;;;;;5041815;28;87875;-57
2023/07/30 09:46:42;;;;;;;;;;;24.20;48.50;;;;;;5042456;27;87197;-55
2023/07/30 09:49:08;;;;;;;;;;;24.30;48.50;;;;;;5038406;28;87384;-57
2023/07/30 09:51:34;;;;;;;;;;;24.30;48.50;;;;;;5035703;28;87126;-56
2023/07/30 09:54:00;;;;;;;;;;;24.30;48.50;;;;;;5039261;28;87284;-55
2023/07/30 09:56:25;;;;;;;;;;;24.30;48.50;;;;;;5042236;27;87440;-57
2023/07/30 09:58:51;;;;;;;;;;;24.30;48.50;;;;;;5041523;27;87394;-56
2023/07/30 10:01:18;;;;;;;;;;;24.30;48.50;;;;;;5040554;28;87727;-56
2023/07/30 10:03:43;;;;;;;;;;;24.30;48.50;;;;;;5041311;28;88100;-50
2023/07/30 10:06:11;;;;;;;;;;;24.40;48.50;;;;;;5040522;27;88123;-57
2023/07/30 10:08:38;;;;;;;;;;;24.40;48.60;;;;;;5036796;27;88441;-57
2023/07/30 10:11:05;;;;;;;;;;;24.40;48.60;;;;;;5040144;28;88111;-55
2023/07/30 10:13:30;;;;;;;;;;;24.40;48.50;;;;;;5041812;27;87082;-55
2023/07/30 10:15:58;;;;;;;;;;;24.40;48.60;;;;;;5040082;27;87697;-56
2023/07/30 10:18:25;;;;;;;;;;;24.50;48.70;;;;;;5036528;28;87851;-57
2023/07/30 10:20:54;;;;;;;;;;;24.50;48.50;;;;;;5041525;28;87109;-55
2023/07/30 10:23:20;;;;;;;;;;;24.50;48.50;;;;;;5041991;27;88058;-57
2023/07/30 10:25:47;;;;;;;;;;;24.50;48.40;;;;;;5038657;28;88221;-56
2023/07/30 10:28:32;;;;;;;;;;;24.50;48.50;;;;;;5035726;27;87914;-57
2023/07/30 10:31:03;;;;;;;;;;;24.60;48.50;;;;;;5040192;28;89118;-57
2023/07/30 10:33:44;;;;;;;;;;;24.60;48.50;;;;;;5041279;27;87154;-56
2023/07/30 10:36:10;;;;;;;;;;;24.60;48.50;;;;;;5039247;27;88362;-57
2023/07/30 10:38:35;;;;;;;;;;;24.60;48.50;;;;;;5041935;28;87957;-56
2023/07/30 10:41:12;;;;;;;;;;;24.60;48.50;;;;;;5047555;28;87141;-57
2023/07/30 10:43:41;;;;;;;;;;;24.60;48.50;;;;;;5039422;27;89299;-57
2023/07/30 10:46:09;;;;;;;;;;;24.60;48.50;;;;;;5042622;28;87246;-55
2023/07/30 10:48:38;;;;;;;;;;;24.70;48.50;;;;;;5041474;28;90876;-56
2023/07/30 10:51:08;;;;;;;;;;;24.70;48.40;;;;;;5044175;28;88027;-56
2023/07/30 10:53:36;;;;;;;;;;;24.70;48.40;;;;;;5041815;27;87535;-55
2023/07/30 10:56:03;;;;;;;;;;;24.80;48.50;;;;;;5041328;28;89459;-55
2023/07/30 10:58:31;;;;;;;;;;;24.80;48.50;;;;;;5038359;27;89544;-55
2023/07/30 11:00:57;;;;;;;;;;;24.80;48.40;;;;;;5044516;27;87136;-56
2023/07/30 11:03:29;;;;;;;;;;;24.80;48.30;;;;;;5044770;28;87551;-56
2023/07/30 11:05:54;;;;;;;;;;;24.80;48.40;;;;;;5041194;28;87048;-57
2023/07/30 11:08:31;;;;;;;;;;;24.80;48.40;;;;;;5038916;28;87219;-56
2023/07/30 11:10:57;;;;;;;;;;;24.80;48.40;;;;;;5044130;27;87588;-57
2023/07/30 11:13:22;;;;;;;;;;;24.90;48.40;;;;;;5042301;27;86588;-57
2023/07/30 11:15:48;;;;;;;;;;;24.90;48.40;;;;;;5039430;28;88275;-54
2023/07/30 11:18:14;;;;;;;;;;;24.90;48.40;;;;;;5040629;28;88392;-56
2023/07/30 11:20:40;;;;;;;;;;;25.00;48.30;;;;;;5044301;27;88114;-55
2023/07/30 11:23:17;;;;;;;;;;;25.00;48.40;;;;;;5040233;28;88299;-57
2023/07/30 11:25:45;;;;;;;;;;;25.00;48.40;;;;;;5038677;28;89537;-55
2023/07/30 11:28:10;;;;;;;;;;;25.00;48.30;;;;;;5044324;27;88715;-56
2023/07/30 11:30:36;;;;;;;;;;;25.00;48.30;;;;;;5042332;27;88176;-56
2023/07/30 11:33:01;;;;;;;;;;;25.00;48.30;;;;;;5041403;28;87520;-56
2023/07/30 11:35:28;;;;;;;;;;;25.10;48.40;;;;;;5037836;28;87440;-55
2023/07/30 11:37:53;;;;;;;;;;;25.10;48.30;;;;;;5042845;28;87058;-54
2023/07/30 11:40:19;;;;;;;;;;;25.10;48.30;;;;;;5043360;27;87189;-56
2023/07/30 11:42:44;;;;;;;;;;;25.20;48.30;;;;;;5040629;27;87455;-56
2023/07/30 11:45:23;;;;;;;;;;;25.20;48.20;;;;;;5038871;28;90449;-56
2023/07/30 11:47:48;;;;;;;;;;;25.20;48.30;;;;;;5042248;28;87025;-57
2023/07/30 11:50:14;;;;;;;;;;;25.20;48.20;;;;;;5041864;27;89164;-56
2023/07/30 11:52:55;;;;;;;;;;;25.30;48.30;;;;;;5038104;28;87149;-57
2023/07/30 11:55:21;;;;;;;;;;;25.30;48.30;;;;;;5040533;28;87400;-55
2023/07/30 11:57:47;;;;;;;;;;;25.30;48.30;;;;;;5043807;27;89217;-56
2023/07/30 12:00:12;;;;;;;;;;;25.30;48.20;;;;;;5039967;28;87376;-56
2023/07/30 12:02:38;;;;;;;;;;;25.40;48.30;;;;;;5036590;27;90445;-57
2023/07/30 12:05:04;;;;;;;;;;;25.40;48.30;;;;;;5043055;28;88563;-57
2023/07/30 12:07:32;;;;;;;;;;;25.40;48.30;;;;;;5042420;27;87368;-57
2023/07/30 12:10:06;;;;;;;;;;;25.40;48.30;;;;;;5040177;28;88321;-57
2023/07/30 12:12:31;;;;;;;;;;;25.40;48.30;;;;;;5041721;27;87179;-57
2023/07/30 12:14:57;;;;;;;;;;;25.40;48.30;;;;;;5043359;28;86988;-54
2023/07/30 12:17:22;;;;;;;;;;;25.40;48.30;;;;;;5042024;27;87852;-56
2023/07/30 12:19:48;;;;;;;;;;;25.50;48.30;;;;;;5039505;28;87775;-58
2023/07/30 12:22:13;;;;;;;;;;;25.50;48.30;;;;;;5038377;28;87405;-57
2023/07/30 12:24:40;;;;;;;;;;;25.50;48.30;;;;;;5041091;28;88173;-56
2023/07/30 12:27:06;;;;;;;;;;;25.50;48.30;;;;;;5043074;27;86533;-55
2023/07/30 12:29:31;;;;;;;;;;;25.60;48.40;;;;;;5039549;27;87182;-55
2023/07/30 12:31:57;;;;;;;;;;;25.60;48.30;;;;;;5041950;28;88163;-54
2023/07/30 12:34:23;;;;;;;;;;;25.60;48.30;;;;;;5043825;27;88466;-57
2023/07/30 12:36:48;;;;;;;;;;;25.60;48.30;;;;;;5039393;27;88033;-57
2023/07/30 12:39:14;;;;;;;;;;;25.60;48.30;;;;;;5035326;28;87216;-56
2023/07/30 12:41:39;;;;;;;;;;;25.70;48.30;;;;;;5042816;28;87997;-56
2023/07/30 12:44:05;;;;;;;;;;;25.70;48.30;;;;;;5042863;27;88035;-57
2023/07/30 12:46:32;;;;;;;;;;;25.70;48.20;;;;;;5040459;27;87176;-56
2023/07/30 12:49:02;;;;;;;;;;;25.70;48.20;;;;;;5037969;27;87977;-56
2023/07/30 12:51:27;;;;;;;;;;;25.80;48.30;;;;;;5045518;27;88801;-56
2023/07/30 12:53:53;;;;;;;;;;;25.80;48.30;;;;;;5042121;27;88058;-57
2023/07/30 12:56:18;;;;;;;;;;;25.80;48.30;;;;;;5039135;28;88776;-56
2023/07/30 12:58:44;;;;;;;;;;;25.80;48.20;;;;;;5036618;27;88047;-56
2023/07/30 13:01:09;;;;;;;;;;;25.80;48.20;;;;;;5042443;28;88359;-52
2023/07/30 13:03:36;;;;;;;;;;;25.80;48.20;;;;;;5041840;27;88174;-55
2023/07/30 13:06:02;;;;;;;;;;;25.90;48.30;;;;;;5037524;28;88897;-57
2023/07/30 13:08:27;;;;;;;;;;;25.90;48.30;;;;;;5036355;28;87491;-57
2023/07/30 13:10:53;;;;;;;;;;;25.90;48.20;;;;;;5041783;28;88700;-57
2023/07/30 13:13:18;;;;;;;;;;;25.90;48.20;;;;;;5042512;27;87138;-57
2023/07/30 13:15:43;;;;;;;;;;;26.00;48.30;;;;;;5038351;28;87438;-55
2023/07/30 13:18:09;;;;;;;;;;;26.00;48.30;;;;;;5040266;28;87068;-56
2023/07/30 13:20:35;;;;;;;;;;;26.00;48.30;;;;;;5041931;27;87527;-55
2023/07/30 13:23:00;;;;;;;;;;;26.00;48.30;;;;;;5037917;28;90377;-57
2023/07/30 13:25:26;;;;;;;;;;;26.00;48.20;;;;;;5035723;28;87187;-57
2023/07/30 13:27:51;;;;;;;;;;;26.00;48.20;;;;;;5042796;27;87979;-57
2023/07/30 13:30:17;;;;;;;;;;;26.00;48.20;;;;;;5042471;27;88245;-56
2023/07/30 13:32:42;;;;;;;;;;;26.00;48.20;;;;;;5038963;28;88817;-56
2023/07/30 13:35:08;;;;;;;;;;;26.10;48.30;;;;;;5038431;28;88605;-57
2023/07/30 13:37:33;;;;;;;;;;;26.10;48.30;;;;;;5042220;28;87092;-57
2023/07/30 13:39:59;;;;;;;;;;;26.10;48.30;;;;;;5041178;27;87032;-57
2023/07/30 13:42:25;;;;;;;;;;;26.10;48.20;;;;;;5039057;28;88191;-55
2023/07/30 13:44:51;;;;;;;;;;;26.10;48.20;;;;;;5038218;27;87747;-57
2023/07/30 13:47:16;;;;;;;;;;;26.20;48.20;;;;;;5041455;28;87948;-56
2023/07/30 13:49:42;;;;;;;;;;;26.20;48.20;;;;;;5040868;27;88124;-57
2023/07/30 13:52:07;;;;;;;;;;;26.30;48.30;;;;;;5039356;28;87184;-57
2023/07/30 13:54:33;;;;;;;;;;;26.30;48.20;;;;;;5035855;28;87812;-56
2023/07/30 13:56:58;;;;;;;;;;;26.20;48.20;;;;;;5044145;28;89380;-57
2023/07/30 13:59:24;;;;;;;;;;;26.30;48.20;;;;;;5038150;27;87422;-48
2023/07/30 14:01:49;;;;;;;;;;;26.30;46.70;;;;;;5033082;28;88437;-50
2023/07/30 14:04:15;;;;;;;;;;;26.40;47.10;;;;;;5037264;28;86418;-59
2023/07/30 14:06:40;;;;;;;;;;;26.60;48.10;;;;;;5041462;28;88414;-51
2023/07/30 14:09:06;;;;;;;;;;;26.60;49.20;;;;;;5039056;27;88093;-56